Time;durP1;ratioP1;P1;durP2;ratioP2;P2;SDS_P1;SDS_P2;PMS_P1;PMS_P2;Temp;Humidity;BMP_temperature;BMP_pressure;BME280_temperature;BME280_humidity;BME280_pressure;Samples;Min_cycle;Max_cycle;Signal;HPM_P1;HPM_P2
2021/12/20 03:03:58;;;;;;;;;;;;;;;6.65;100.00;98209.50;4935873;28;19974;-70
2021/12/20 03:06:29;;;;;;;;;;;;;;;6.64;100.00;98202.34;4938388;29;19954;-70
2021/12/20 03:08:57;;;;;;;;;;;;;;;6.60;100.00;98198.72;4938017;29;19947;-70
2021/12/20 03:11:26;;;;;;;;;;;;;;;6.63;100.00;98197.94;4938003;29;19961;-69
2021/12/20 03:14:04;;;;;;;;;;;;;;;6.61;100.00;98203.09;4920088;29;19965;-69
2021/12/20 03:16:33;;;;;;;;;;;;;;;6.66;100.00;98190.84;4919603;29;19953;-69
2021/12/20 03:19:01;;;;;;;;;;;;;;;6.66;100.00;98188.06;4919459;29;20031;-69
2021/12/20 03:21:29;;;;;;;;;;;;;;;6.64;100.00;98188.44;4919761;29;19949;-69
2021/12/20 03:23:56;;;;;;;;;;;;;;;6.69;100.00;98178.97;4919683;29;19954;-69
2021/12/20 03:26:23;;;;;;;;;;;;;;;6.74;100.00;98192.56;4919520;29;19950;-69
2021/12/20 03:28:51;;;;;;;;;;;;;;;6.69;100.00;98178.97;4919508;29;19948;-69
2021/12/20 03:31:18;;;;;;;;;;;;;;;6.70;100.00;98180.59;4918142;29;19958;-69
2021/12/20 03:33:46;;;;;;;;;;;;;;;6.69;100.00;98177.00;4919199;29;19956;-69
2021/12/20 03:36:13;;;;;;;;;;;;;;;6.70;100.00;98180.59;4918953;29;20337;-69
2021/12/20 03:38:41;;;;;;;;;;;;;;;6.70;100.00;98186.16;4919290;29;19949;-70
2021/12/20 03:41:08;;;;;;;;;;;;;;;6.66;100.00;98182.50;4918974;29;19961;-70
2021/12/20 03:43:35;;;;;;;;;;;;;;;6.61;100.00;98178.06;4919055;29;20231;-70
2021/12/20 03:46:03;;;;;;;;;;;;;;;6.66;100.00;98176.94;4919211;29;19951;-70
2021/12/20 03:48:31;;;;;;;;;;;;;;;6.71;100.00;98171.06;4918705;29;19959;-70
2021/12/20 03:51:02;;;;;;;;;;;;;;;6.68;100.00;98167.06;4919452;29;19952;-70
2021/12/20 03:53:30;;;;;;;;;;;;;;;6.71;100.00;98169.09;4919107;29;19949;-70
2021/12/20 03:55:57;;;;;;;;;;;;;;;6.76;100.00;98174.34;4919348;29;19975;-70
2021/12/20 03:58:28;;;;;;;;;;;;;;;6.78;100.00;98154.50;4919780;29;19948;-69
2021/12/20 04:00:57;;;;;;;;;;;;;;;6.87;100.00;98164.16;4921886;29;19954;-69
2021/12/20 04:03:25;;;;;;;;;;;;;;;6.83;100.00;98146.63;4922335;29;20393;-70
2021/12/20 04:05:52;;;;;;;;;;;;;;;6.81;100.00;98160.13;4922240;29;19945;-69
2021/12/20 04:08:20;;;;;;;;;;;;;;;6.86;100.00;98157.00;4922361;29;19965;-70
2021/12/20 04:10:47;;;;;;;;;;;;;;;6.86;100.00;98151.44;4905888;29;19957;-69
2021/12/20 04:13:14;;;;;;;;;;;;;;;6.88;100.00;98143.53;4922087;29;19955;-69
2021/12/20 04:15:42;;;;;;;;;;;;;;;6.95;100.00;98135.28;4921964;29;20028;-70
2021/12/20 04:18:09;;;;;;;;;;;;;;;6.98;100.00;98134.53;4921900;29;19957;-69
2021/12/20 04:20:36;;;;;;;;;;;;;;;6.91;100.00;98128.88;4921923;29;19949;-69
2021/12/20 04:23:04;;;;;;;;;;;;;;;6.88;100.00;98121.28;4919823;29;19949;-69
2021/12/20 04:25:31;;;;;;;;;;;;;;;6.88;100.00;98126.84;4919981;29;19948;-69
2021/12/20 04:27:58;;;;;;;;;;;;;;;6.90;100.00;98126.47;4903143;29;19950;-69
2021/12/20 04:30:28;;;;;;;;;;;;;;;6.89;100.00;98117.34;4920202;29;19965;-69
2021/12/20 04:32:56;;;;;;;;;;;;;;;6.85;100.00;98121.22;4919717;29;20261;-69
2021/12/20 04:35:24;;;;;;;;;;;;;;;6.86;100.00;98120.88;4919708;29;19977;-70
2021/12/20 04:37:52;;;;;;;;;;;;;;;6.83;100.00;98123.59;4919307;29;19948;-70
2021/12/20 04:40:21;;;;;;;;;;;;;;;6.87;100.00;98130.78;4919449;29;19957;-69
2021/12/20 04:42:53;;;;;;;;;;;;;;;6.87;100.00;98124.47;4918670;29;19952;-69
2021/12/20 04:45:21;;;;;;;;;;;;;;;6.88;100.00;98117.72;4919815;29;19968;-69
2021/12/20 04:47:49;;;;;;;;;;;;;;;6.86;100.00;98123.66;4919513;29;19955;-69
2021/12/20 04:50:16;;;;;;;;;;;;;;;6.87;100.00;98116.91;4919277;29;19953;-70
2021/12/20 04:52:44;;;;;;;;;;;;;;;6.89;100.00;98114.56;4919094;29;20348;-70
2021/12/20 04:55:12;;;;;;;;;;;;;;;6.92;100.00;98122.13;4919118;29;19975;-69
2021/12/20 04:57:40;;;;;;;;;;;;;;;6.88;100.00;98120.50;4919331;29;19957;-69
2021/12/20 05:00:10;;;;;;;;;;;;;;;6.88;100.00;98121.28;4919210;29;19967;-70
2021/12/20 05:02:37;;;;;;;;;;;;;;;6.97;100.00;98113.47;4919140;29;19979;-70
2021/12/20 05:05:05;;;;;;;;;;;;;;;7.00;100.00;98126.59;4902216;29;19958;-70
2021/12/20 05:07:32;;;;;;;;;;;;;;;6.98;100.00;98119.81;4919015;29;19962;-70
2021/12/20 05:10:02;;;;;;;;;;;;;;;7.04;100.00;98119.09;4918579;29;19952;-69
2021/12/20 05:12:29;;;;;;;;;;;;;;;7.05;100.00;98131.03;4918681;29;19955;-69
2021/12/20 05:14:56;;;;;;;;;;;;;;;7.01;100.00;98131.00;4919304;29;19981;-69
2021/12/20 05:17:24;;;;;;;;;;;;;;;6.93;100.00;98134.84;4902449;29;19965;-69
2021/12/20 05:19:51;;;;;;;;;;;;;;;6.91;100.00;98130.84;4918935;29;19959;-69
2021/12/20 05:22:19;;;;;;;;;;;;;;;6.89;100.00;98127.66;4918364;29;19955;-70
2021/12/20 05:24:46;;;;;;;;;;;;;;;6.85;100.00;98130.38;4918898;29;19962;-70
2021/12/20 05:27:13;;;;;;;;;;;;;;;6.89;100.00;98122.91;4918926;29;19955;-70
2021/12/20 05:29:41;;;;;;;;;;;;;;;6.93;100.00;98118.19;4918565;29;19961;-70
2021/12/20 05:32:09;;;;;;;;;;;;;;;7.02;100.00;98124.25;4919197;29;19952;-70
2021/12/20 05:34:36;;;;;;;;;;;;;;;7.11;100.00;98118.41;4918213;29;19947;-70
2021/12/20 05:37:05;;;;;;;;;;;;;;;7.07;100.00;98114.75;4918771;29;19977;-70
2021/12/20 05:39:32;;;;;;;;;;;;;;;7.18;100.00;98099.81;4918911;29;19957;-70
2021/12/20 05:41:59;;;;;;;;;;;;;;;7.21;100.00;98114.94;4918895;29;19957;-70
2021/12/20 05:44:27;;;;;;;;;;;;;;;7.26;100.00;98109.81;4918165;29;19938;-70
2021/12/20 05:46:54;;;;;;;;;;;;;;;7.36;100.00;98118.69;4902235;29;19954;-70
2021/12/20 05:49:21;;;;;;;;;;;;;;;7.30;100.00;98118.22;4918527;29;19945;-70
2021/12/20 05:51:50;;;;;;;;;;;;;;;7.31;100.00;98116.25;4918442;29;19959;-70
2021/12/20 05:54:17;;;;;;;;;;;;;;;7.34;100.00;98105.13;4918258;29;19955;-70
2021/12/20 05:56:45;;;;;;;;;;;;;;;7.30;100.00;98112.66;4918620;29;20016;-69
2021/12/20 05:59:12;;;;;;;;;;;;;;;7.26;100.00;98101.47;4918253;29;19955;-69
2021/12/20 06:01:39;;;;;;;;;;;;;;;7.21;100.00;98112.16;4918116;29;19949;-69
2021/12/20 06:04:07;;;;;;;;;;;;;;;7.24;100.00;98106.63;4918698;29;19975;-69
2021/12/20 06:06:34;;;;;;;;;;;;;;;7.27;100.00;98100.31;4917850;29;19957;-69
2021/12/20 06:09:01;;;;;;;;;;;;;;;7.23;100.00;98101.47;4917929;29;20345;-69
2021/12/20 06:11:29;;;;;;;;;;;;;;;7.29;100.00;98105.47;4917855;29;20036;-69
2021/12/20 06:13:58;;;;;;;;;;;;;;;7.29;100.00;98108.25;4918348;29;19956;-70
2021/12/20 06:16:26;;;;;;;;;;;;;;;7.27;100.00;98107.84;4901335;29;19973;-69
2021/12/20 06:18:53;;;;;;;;;;;;;;;7.38;100.00;98105.19;4917924;29;19960;-70
2021/12/20 06:21:20;;;;;;;;;;;;;;;7.31;100.00;98102.34;4917163;29;19949;-69
2021/12/20 06:23:48;;;;;;;;;;;;;;;7.34;100.00;98096.00;4917872;29;20259;-70
2021/12/20 06:26:15;;;;;;;;;;;;;;;7.38;100.00;98094.88;4917461;29;19985;-70
2021/12/20 06:28:43;;;;;;;;;;;;;;;7.35;100.00;98094.81;4917523;29;19961;-70
2021/12/20 06:31:10;;;;;;;;;;;;;;;7.33;100.00;98098.00;4917230;29;20274;-69
2021/12/20 06:33:37;;;;;;;;;;;;;;;7.33;100.00;98097.19;4917735;29;19961;-69
2021/12/20 06:36:04;;;;;;;;;;;;;;;7.34;100.00;98099.56;4917581;29;19988;-70
2021/12/20 06:38:33;;;;;;;;;;;;;;;7.35;100.00;98101.19;4900828;29;19955;-69
2021/12/20 06:41:00;;;;;;;;;;;;;;;7.34;100.00;98096.00;4917697;29;19964;-69
2021/12/20 06:43:30;;;;;;;;;;;;;;;7.36;100.00;98090.88;4916911;29;20258;-70
2021/12/20 06:45:57;;;;;;;;;;;;;;;7.32;100.00;98090.00;4918096;29;19955;-70
2021/12/20 06:48:25;;;;;;;;;;;;;;;7.36;100.00;98093.66;4917542;29;19959;-70
2021/12/20 06:50:53;;;;;;;;;;;;;;;7.39;100.00;98093.66;4917309;29;19949;-70
2021/12/20 06:53:20;;;;;;;;;;;;;;;7.36;100.00;98097.22;4917049;29;19951;-69
2021/12/20 06:55:48;;;;;;;;;;;;;;;7.40;100.00;98080.56;4917177;29;20404;-69
2021/12/20 06:58:15;;;;;;;;;;;;;;;7.42;100.00;98094.88;4917192;29;20349;-69
2021/12/20 07:00:42;;;;;;;;;;;;;;;7.43;100.00;98094.53;4917502;29;20416;-69
2021/12/20 07:03:10;;;;;;;;;;;;;;;7.47;100.00;98092.56;4917592;29;19972;-70
2021/12/20 07:05:37;;;;;;;;;;;;;;;7.51;100.00;98106.50;4917718;29;19951;-69
2021/12/20 07:08:04;;;;;;;;;;;;;;;7.61;100.00;98089.13;4917144;29;19954;-69
2021/12/20 07:10:32;;;;;;;;;;;;;;;7.66;100.00;98095.13;4917635;29;19952;-69
2021/12/20 07:13:00;;;;;;;;;;;;;;;7.69;100.00;98088.81;4917217;29;19961;-70
2021/12/20 07:15:28;;;;;;;;;;;;;;;7.72;100.00;98093.63;4917056;29;19952;-69
2021/12/20 07:17:55;;;;;;;;;;;;;;;7.75;100.00;98103.94;4917310;29;19963;-69
2021/12/20 07:20:23;;;;;;;;;;;;;;;7.71;100.00;98103.13;4917372;29;19956;-69
2021/12/20 07:22:50;;;;;;;;;;;;;;;7.81;100.00;98109.97;4916939;29;19950;-69
2021/12/20 07:25:18;;;;;;;;;;;;;;;7.94;100.00;98102.94;4917282;29;20242;-70
2021/12/20 07:27:49;;;;;;;;;;;;;;;8.24;100.00;98116.72;4917015;29;19968;-69
2021/12/20 07:30:17;;;;;;;;;;;;;;;8.64;100.00;98105.44;4917168;29;20259;-69
2021/12/20 07:32:45;;;;;;;;;;;;;;;9.05;100.00;98117.19;4918580;29;20344;-70
2021/12/20 07:35:12;;;;;;;;;;;;;;;9.77;100.00;98117.81;4921254;29;19956;-69
2021/12/20 07:37:39;;;;;;;;;;;;;;;10.37;100.00;98117.03;4920513;29;20023;-69
2021/12/20 07:40:07;;;;;;;;;;;;;;;11.18;100.00;98125.22;4920993;29;20350;-70
2021/12/20 07:42:35;;;;;;;;;;;;;;;11.60;100.00;98133.41;4920289;29;19954;-70
2021/12/20 07:45:03;;;;;;;;;;;;;;;12.09;100.00;98143.53;4920607;29;19950;-70
2021/12/20 07:47:44;;;;;;;;;;;;;;;13.16;100.00;98130.09;4920274;29;19950;-68
2021/12/20 07:50:11;;;;;;;;;;;;;;;14.17;95.30;98143.16;4919916;29;19954;-68
2021/12/20 07:52:39;;;;;;;;;;;;;;;15.73;85.84;98133.44;4920094;29;19953;-68
2021/12/20 07:55:08;;;;;;;;;;;;;;;17.50;75.83;98150.34;4920770;29;19962;-70
2021/12/20 07:57:37;;;;;;;;;;;;;;;18.74;65.56;98150.13;4919958;29;19997;-70
2021/12/20 08:00:08;;;;;;;;;;;;;;;20.40;60.45;98149.66;4920775;29;19943;-69
2021/12/20 08:02:39;;;;;;;;;;;;;;;21.51;55.16;98148.19;4919774;29;20389;-68
2021/12/20 08:05:07;;;;;;;;;;;;;;;23.43;49.08;98152.66;4920310;29;19950;-68
2021/12/20 08:07:34;;;;;;;;;;;;;;;24.05;45.09;98148.91;4920071;29;19950;-69
2021/12/20 08:10:03;;;;;;;;;;;;;;;23.89;43.75;98144.47;4920448;29;19949;-69
2021/12/20 08:12:30;;;;;;;;;;;;;;;25.06;41.20;98150.06;4919886;29;19957;-69
2021/12/20 08:14:58;;;;;;;;;;;;;;;25.47;39.18;98153.75;4920607;29;19944;-70
2021/12/20 08:17:25;;;;;;;;;;;;;;;25.77;37.20;98160.88;4919344;29;19967;-70
2021/12/20 08:19:53;;;;;;;;;;;;;;;24.53;39.68;98156.00;4920296;29;19956;-69
2021/12/20 08:22:24;;;;;;;;;;;;;;;24.17;41.19;98157.22;4919473;29;19967;-69
2021/12/20 08:24:54;;;;;;;;;;;;;;;22.73;44.38;98170.53;4919881;29;19948;-69
2021/12/20 08:27:21;;;;;;;;;;;;;;;21.46;47.57;98162.25;4919356;29;19961;-68
2021/12/20 08:29:49;;;;;;;;;;;;;;;19.86;55.59;98157.88;4920151;29;19949;-68
2021/12/20 08:32:16;;;;;;;;;;;;;;;19.81;54.74;98164.13;4920089;29;19953;-68
2021/12/20 08:34:44;;;;;;;;;;;;;;;19.29;59.12;98164.84;4902344;29;19949;-68
2021/12/20 08:37:11;;;;;;;;;;;;;;;18.67;58.50;98166.56;4919635;29;19971;-70
2021/12/20 08:39:39;;;;;;;;;;;;;;;18.56;59.41;98171.81;4919823;29;20362;-71
2021/12/20 08:42:06;;;;;;;;;;;;;;;18.89;58.76;98176.75;4919261;29;19943;-70
2021/12/20 08:44:34;;;;;;;;;;;;;;;19.19;58.41;98177.34;4918699;29;19948;-70
2021/12/20 08:47:02;;;;;;;;;;;;;;;18.50;59.06;98176.44;4919104;29;19956;-70
2021/12/20 08:49:29;;;;;;;;;;;;;;;17.09;63.21;98178.53;4919222;29;19949;-70
2021/12/20 08:51:57;;;;;;;;;;;;;;;16.25;69.54;98181.44;4919992;29;19950;-70
2021/12/20 08:54:27;;;;;;;;;;;;;;;16.01;70.09;98180.78;4919373;29;19960;-70
2021/12/20 08:56:55;;;;;;;;;;;;;;;15.65;73.65;98191.19;4919275;29;20375;-70
2021/12/20 08:59:23;;;;;;;;;;;;;;;15.19;75.41;98189.25;4919150;29;19958;-70
2021/12/20 09:01:51;;;;;;;;;;;;;;;14.90;78.21;98205.09;4919734;29;19958;-70
2021/12/20 09:04:18;;;;;;;;;;;;;;;14.60;80.65;98208.81;4919170;29;19983;-70
2021/12/20 09:06:48;;;;;;;;;;;;;;;14.18;81.78;98220.72;4919770;29;19950;-70
2021/12/20 09:09:16;;;;;;;;;;;;;;;13.03;68.47;98228.06;4919033;29;19938;-70
2021/12/20 09:11:44;;;;;;;;;;;;;;;12.87;65.96;98241.06;4918913;29;19931;-70
2021/12/20 09:14:12;;;;;;;;;;;;;;;12.05;69.65;98229.66;4918863;29;19935;-70
2021/12/20 09:16:40;;;;;;;;;;;;;;;11.55;72.74;98236.66;4918826;29;19927;-70
2021/12/20 09:19:08;;;;;;;;;;;;;;;11.51;78.01;98244.28;4918670;29;19931;-70
2021/12/20 09:21:35;;;;;;;;;;;;;;;11.07;77.20;98251.19;4918547;29;19996;-70
2021/12/20 09:24:04;;;;;;;;;;;;;;;10.83;77.92;98263.19;4918708;29;19936;-70
2021/12/20 09:26:32;;;;;;;;;;;;;;;10.03;81.27;98281.44;4902840;29;19938;-69
2021/12/20 09:28:59;;;;;;;;;;;;;;;9.15;96.99;98286.59;4919316;29;19934;-70
2021/12/20 09:31:26;;;;;;;;;;;;;;;8.74;95.27;98285.09;4918296;29;19927;-69
2021/12/20 09:33:55;;;;;;;;;;;;;;;8.32;96.22;98289.13;4918407;29;19927;-69
2021/12/20 09:36:28;;;;;;;;;;;;;;;7.78;100.00;98294.44;4918352;29;19958;-70
2021/12/20 09:38:57;;;;;;;;;;;;;;;7.43;100.00;98299.56;4918713;29;19935;-70
2021/12/20 09:42:08;;;;;;;;;;;;;;;7.34;100.00;98297.06;4918749;29;19931;-69
2021/12/20 09:44:16;;;;;;;;;;;;;;;7.28;100.00;98295.81;4912916;29;20312;-70
2021/12/20 09:46:43;;;;;;;;;;;;;;;7.14;100.00;98303.94;4918196;29;19927;-69
2021/12/20 09:49:10;;;;;;;;;;;;;;;6.95;100.00;98304.84;4900780;29;19938;-69
2021/12/20 09:51:38;;;;;;;;;;;;;;;6.91;100.00;98304.00;4921750;29;19938;-70
2021/12/20 09:54:05;;;;;;;;;;;;;;;6.89;100.00;98302.75;4931491;29;20008;-69
2021/12/20 09:56:33;;;;;;;;;;;;;;;6.89;100.00;98303.56;4935191;29;19935;-69
2021/12/20 09:59:01;;;;;;;;;;;;;;;6.80;100.00;98322.47;4930532;29;19957;-70
2021/12/20 10:01:29;;;;;;;;;;;;;;;6.65;100.00;98323.44;4932445;29;19934;-70
2021/12/20 10:03:56;;;;;;;;;;;;;;;6.46;100.00;98327.06;4930957;29;19934;-70
2021/12/20 10:06:24;;;;;;;;;;;;;;;6.61;100.00;98336.44;4931781;29;20378;-69
2021/12/20 10:08:55;;;;;;;;;;;;;;;6.40;100.00;98327.75;4929379;29;19935;-69
2021/12/20 10:11:24;;;;;;;;;;;;;;;6.46;100.00;98326.25;4938282;29;19927;-69
2021/12/20 10:14:05;;;;;;;;;;;;;;;6.41;100.00;98332.09;4944028;29;19934;-69
2021/12/20 10:17:05;;;;;;;;;;;;;;;6.41;100.00;98332.09;4924374;29;19931;-69
2021/12/20 10:19:34;;;;;;;;;;;;;;;6.42;100.00;98331.75;4928961;29;19927;-69
2021/12/20 10:22:20;;;;;;;;;;;;;;;6.66;100.00;98336.13;4934820;29;19934;-69
2021/12/20 10:24:48;;;;;;;;;;;;;;;6.56;100.00;98345.88;4935011;29;20327;-69
2021/12/20 10:27:49;;;;;;;;;;;;;;;6.62;100.00;98351.94;4923491;29;20219;-70
2021/12/20 10:30:28;;;;;;;;;;;;;;;6.21;100.00;98350.00;4896017;29;19935;-69
2021/12/20 10:32:56;;;;;;;;;;;;;;;6.21;100.00;98355.56;4929401;29;19931;-70
2021/12/20 10:35:27;;;;;;;;;;;;;;;6.33;100.00;98353.38;4925857;29;19931;-69
2021/12/20 10:37:56;;;;;;;;;;;;;;;6.26;100.00;98358.03;4938902;29;19931;-69
2021/12/20 10:40:23;;;;;;;;;;;;;;;6.10;100.00;98372.00;4934865;29;20006;-70
2021/12/20 10:42:53;;;;;;;;;;;;;;;6.20;100.00;98370.59;4930971;29;19931;-69
2021/12/20 10:45:20;;;;;;;;;;;;;;;5.77;100.00;98383.56;4915651;29;19938;-69
2021/12/20 10:47:48;;;;;;;;;;;;;;;5.92;100.00;98391.06;4916114;29;19931;-69
2021/12/20 10:50:27;;;;;;;;;;;;;;;5.97;100.00;98390.78;4916723;29;19938;-70
2021/12/20 10:53:12;;;;;;;;;;;;;;;5.96;100.00;98388.38;4923897;29;19927;-70
2021/12/20 10:55:41;;;;;;;;;;;;;;;6.18;100.00;98382.09;4923310;29;19927;-70
2021/12/20 10:58:19;;;;;;;;;;;;;;;6.25;100.00;98378.63;4927911;29;19935;-69
2021/12/20 11:01:04;;;;;;;;;;;;;;;6.03;100.00;98382.97;4931565;29;19942;-69
2021/12/20 11:03:36;;;;;;;;;;;;;;;6.26;100.00;98378.25;4935987;29;19927;-70
2021/12/20 11:11:24;;;;;;;;;;;;;;;6.33;100.00;98383.16;4918627;29;19934;-69
2021/12/20 11:13:52;;;;;;;;;;;;;;;6.51;100.00;98393.41;4921357;29;19934;-70
2021/12/20 11:16:27;;;;;;;;;;;;;;;6.53;100.00;98398.59;4920823;29;19927;-69
2021/12/20 11:19:07;;;;;;;;;;;;;;;6.67;100.00;98393.31;4921806;29;19934;-69
2021/12/20 11:21:35;;;;;;;;;;;;;;;6.63;100.00;98400.00;4915930;29;19927;-69
2021/12/20 11:24:03;;;;;;;;;;;;;;;6.26;100.00;98402.47;4922321;29;19931;-69
2021/12/20 11:26:31;;;;;;;;;;;;;;;6.35;100.00;98398.28;4912604;29;20250;-69
2021/12/20 11:28:58;;;;;;;;;;;;;;;6.75;100.00;98400.59;4918952;29;19928;-69
2021/12/20 11:31:26;;;;;;;;;;;;;;;7.01;100.00;98408.19;4911055;29;19938;-70
2021/12/20 11:33:53;;;;;;;;;;;;;;;7.03;100.00;98403.06;4912588;29;19932;-70
2021/12/20 11:36:21;;;;;;;;;;;;;;;6.79;100.00;98409.81;4905358;29;19935;-69
2021/12/20 11:38:48;;;;;;;;;;;;;;;6.86;100.00;98409.13;4919305;29;20248;-69
2021/12/20 11:41:16;;;;;;;;;;;;;;;6.93;100.00;98404.50;4906598;29;19928;-69
2021/12/20 11:43:44;;;;;;;;;;;;;;;6.61;100.00;98400.34;4921750;29;20291;-70
2021/12/20 11:46:13;;;;;;;;;;;;;;;6.89;100.00;98400.84;4922617;29;20232;-69
2021/12/20 11:48:41;;;;;;;;;;;;;;;7.01;100.00;98403.44;4921380;29;20351;-70
2021/12/20 11:51:09;;;;;;;;;;;;;;;7.06;100.00;98403.13;4921768;29;20320;-70
2021/12/20 11:53:40;;;;;;;;;;;;;;;7.18;100.00;98402.94;4921219;29;19978;-70
2021/12/20 11:56:07;;;;;;;;;;;;;;;7.06;100.00;98399.53;4921791;29;19960;-69
2021/12/20 11:58:35;;;;;;;;;;;;;;;7.31;100.00;98402.72;4920718;29;19966;-70
2021/12/20 12:01:04;;;;;;;;;;;;;;;7.09;100.00;98390.47;4923590;29;20501;-69
2021/12/20 12:03:33;;;;;;;;;;;;;;;7.21;100.00;98396.59;4919611;29;19935;-70
2021/12/20 12:06:01;;;;;;;;;;;;;;;7.27;100.00;98397.91;4921530;29;19935;-69
2021/12/20 12:08:42;;;;;;;;;;;;;;;7.38;100.00;98391.69;4912068;29;19935;-69
2021/12/20 12:11:09;;;;;;;;;;;;;;;7.41;100.00;98394.53;4909081;29;19962;-69
2021/12/20 12:13:43;;;;;;;;;;;;;;;7.25;100.00;98394.69;4921587;29;19938;-69
2021/12/20 12:16:26;;;;;;;;;;;;;;;7.43;100.00;98391.38;4912060;29;19927;-69
2021/12/20 12:18:55;;;;;;;;;;;;;;;7.52;100.00;98389.94;4919447;29;19934;-69
2021/12/20 12:21:31;;;;;;;;;;;;;;;7.50;100.00;98397.84;4911695;29;19970;-69
2021/12/20 12:24:14;;;;;;;;;;;;;;;7.34;100.00;98393.59;4914099;29;20235;-70
2021/12/20 12:26:43;;;;;;;;;;;;;;;7.37;100.00;98404.81;4910493;29;19960;-69
2021/12/20 12:29:28;;;;;;;;;;;;;;;7.33;100.00;98397.59;4914687;29;19967;-70
2021/12/20 12:32:00;;;;;;;;;;;;;;;6.98;100.00;98392.25;4912453;29;19950;-69
2021/12/20 12:34:41;;;;;;;;;;;;;;;6.41;100.00;98393.22;4918054;29;20213;-69
2021/12/20 12:37:37;;;;;;;;;;;;;;;6.06;100.00;98390.56;4908837;29;19927;-69
2021/12/20 12:40:21;;;;;;;;;;;;;;;5.67;100.00;98380.59;4912869;29;20309;-69
2021/12/20 12:42:52;;;;;;;;;;;;;;;5.56;100.00;98385.91;4914802;29;19935;-70
2021/12/20 12:45:40;;;;;;;;;;;;;;;5.33;100.00;98393.28;4917760;29;19927;-69
2021/12/20 12:48:31;;;;;;;;;;;;;;;5.08;100.00;98392.72;4913976;29;20327;-69
2021/12/20 12:51:10;;;;;;;;;;;;;;;4.26;100.00;98405.63;4906480;29;19934;-69
2021/12/20 12:53:39;;;;;;;;;;;;;;;3.76;100.00;98408.16;4918600;29;19939;-69
2021/12/20 12:56:25;;;;;;;;;;;;;;;3.20;100.00;98402.50;4919615;29;20229;-69
2021/12/20 12:59:11;;;;;;;;;;;;;;;2.82;100.00;98404.00;4906041;29;19928;-69
2021/12/20 13:01:39;;;;;;;;;;;;;;;2.45;100.00;98401.19;4920349;29;19931;-69
2021/12/20 13:04:07;;;;;;;;;;;;;;;1.98;100.00;98405.47;4913664;29;20221;-69
2021/12/20 13:06:34;;;;;;;;;;;;;;;1.99;100.00;98412.56;4919431;29;19928;-69
2021/12/20 13:09:03;;;;;;;;;;;;;;;1.68;100.00;98403.94;4892499;29;20253;-69
2021/12/20 13:11:31;;;;;;;;;;;;;;;1.53;100.00;98402.59;4919733;29;19946;-69
2021/12/20 13:14:06;;;;;;;;;;;;;;;1.14;100.00;98406.63;4919885;29;20216;-69
2021/12/20 13:16:36;;;;;;;;;;;;;;;1.03;100.00;98408.13;4919328;29;19927;-69
2021/12/20 13:19:05;;;;;;;;;;;;;;;0.78;100.00;98405.53;4920144;29;19927;-70
2021/12/20 13:21:48;;;;;;;;;;;;;;;0.59;100.00;98390.22;4919352;29;19927;-69
2021/12/20 13:24:16;;;;;;;;;;;;;;;0.77;100.00;98401.97;4919920;29;19927;-69
2021/12/20 13:26:43;;;;;;;;;;;;;;;0.62;100.00;98408.00;4919357;29;19927;-69
2021/12/20 13:29:16;;;;;;;;;;;;;;;0.64;100.00;98405.72;4919273;29;19927;-69
2021/12/20 13:31:43;;;;;;;;;;;;;;;0.51;100.00;98420.53;4918516;29;19935;-69
2021/12/20 13:34:14;;;;;;;;;;;;;;;0.37;100.00;98406.97;4918923;29;19938;-70
2021/12/20 13:36:50;;;;;;;;;;;;;;;0.43;100.00;98415.84;4919885;29;19927;-70
2021/12/20 13:39:18;;;;;;;;;;;;;;;0.43;100.00;98424.94;4918831;29;20316;-69
2021/12/20 13:41:45;;;;;;;;;;;;;;;0.41;100.00;98421.69;4919778;29;19927;-69
2021/12/20 13:44:15;;;;;;;;;;;;;;;0.30;100.00;98425.94;4918994;29;19927;-69
2021/12/20 13:46:44;;;;;;;;;;;;;;;0.09;100.00;98427.75;4919289;29;20254;-69
2021/12/20 13:49:20;;;;;;;;;;;;;;;0.27;100.00;98432.06;4911983;29;20369;-69
2021/12/20 13:51:52;;;;;;;;;;;;;;;0.30;100.00;98430.59;4918884;29;20232;-69
2021/12/20 13:54:25;;;;;;;;;;;;;;;0.20;100.00;98429.03;4912072;29;19942;-69
2021/12/20 13:56:54;;;;;;;;;;;;;;;0.23;100.00;98433.88;4919010;29;19934;-69
2021/12/20 13:59:42;;;;;;;;;;;;;;;0.29;100.00;98429.00;4919212;29;19934;-69
2021/12/20 14:02:13;;;;;;;;;;;;;;;0.08;100.00;98434.38;4909002;29;19935;-69
2021/12/20 14:04:41;;;;;;;;;;;;;;;0.09;100.00;98438.75;4912681;29;19927;-69
2021/12/20 14:07:27;;;;;;;;;;;;;;;0.15;100.00;98436.66;4913574;29;19927;-69
2021/12/20 14:09:58;;;;;;;;;;;;;;;0.12;100.00;98435.38;4922091;29;19927;-69
2021/12/20 14:12:32;;;;;;;;;;;;;;;0.34;100.00;98446.13;4911464;29;19962;-69
2021/12/20 14:15:04;;;;;;;;;;;;;;;0.39;100.00;98456.94;4913480;29;19935;-69
2021/12/20 14:17:50;;;;;;;;;;;;;;;0.38;100.00;98460.84;4916788;29;19927;-69
2021/12/20 14:20:18;;;;;;;;;;;;;;;0.02;100.00;98468.69;4919575;29;20209;-69
2021/12/20 14:22:59;;;;;;;;;;;;;;;0.12;100.00;98468.34;4920264;29;19927;-69
2021/12/20 14:25:31;;;;;;;;;;;;;;;0.03;100.00;98470.28;4920129;29;19927;-69
2021/12/20 14:28:00;;;;;;;;;;;;;;;-0.05;100.00;98471.13;4919255;29;19938;-69
2021/12/20 14:30:28;;;;;;;;;;;;;;;-0.06;100.00;98480.50;4902321;29;19942;-69
2021/12/20 14:32:55;;;;;;;;;;;;;;;-0.01;100.00;98481.16;4919923;29;20000;-69
2021/12/20 14:35:23;;;;;;;;;;;;;;;-0.05;100.00;98488.41;4919785;29;19928;-69
2021/12/20 14:37:51;;;;;;;;;;;;;;;0.19;100.00;98489.84;4910857;29;20242;-69
2021/12/20 14:40:37;;;;;;;;;;;;;;;0.00;100.00;98498.44;4911956;29;19938;-69
2021/12/20 14:43:07;;;;;;;;;;;;;;;-0.11;100.00;98497.97;4916598;29;19941;-69
2021/12/20 14:45:34;;;;;;;;;;;;;;;-0.03;100.00;98494.41;4911339;29;20245;-69
2021/12/20 14:48:14;;;;;;;;;;;;;;;0.04;100.00;98499.41;4904361;29;19928;-69
2021/12/20 14:50:46;;;;;;;;;;;;;;;0.02;100.00;98500.88;4912585;29;19927;-69
2021/12/20 14:53:24;;;;;;;;;;;;;;;0.03;100.00;98505.22;4915571;29;19927;-69
2021/12/20 14:55:52;;;;;;;;;;;;;;;0.01;100.00;98513.78;4914330;29;19927;-69
2021/12/20 14:58:20;;;;;;;;;;;;;;;0.13;100.00;98511.19;4912986;29;19935;-69
2021/12/20 15:00:48;;;;;;;;;;;;;;;0.10;100.00;98516.56;4908373;29;19927;-69
2021/12/20 15:03:18;;;;;;;;;;;;;;;0.15;100.00;98514.44;4915444;29;19927;-69
2021/12/20 15:05:58;;;;;;;;;;;;;;;0.05;100.00;98520.25;4908209;29;20384;-69
2021/12/20 15:08:25;;;;;;;;;;;;;;;0.19;100.00;98531.91;4916210;29;20320;-70
2021/12/20 15:10:53;;;;;;;;;;;;;;;0.21;100.00;98526.88;4912811;29;19934;-69
2021/12/20 15:13:21;;;;;;;;;;;;;;;0.15;100.00;98522.66;4913644;29;19960;-69
2021/12/20 15:15:48;;;;;;;;;;;;;;;0.23;100.00;98524.63;4917952;29;20296;-69
2021/12/20 15:18:16;;;;;;;;;;;;;;;0.23;100.00;98532.88;4916021;29;19927;-69
2021/12/20 15:20:43;;;;;;;;;;;;;;;0.22;100.00;98534.00;4918669;29;19927;-69
2021/12/20 15:23:10;;;;;;;;;;;;;;;0.24;100.00;98530.94;4918916;29;19927;-69
2021/12/20 15:25:40;;;;;;;;;;;;;;;0.14;100.00;98537.56;4918457;29;19934;-69
2021/12/20 15:28:07;;;;;;;;;;;;;;;0.12;100.00;98533.53;4914098;29;20309;-69
2021/12/20 15:30:35;;;;;;;;;;;;;;;0.16;100.00;98543.56;4915489;29;19934;-69
2021/12/20 15:33:03;;;;;;;;;;;;;;;0.13;100.00;98546.13;4914640;29;19938;-70
2021/12/20 15:35:31;;;;;;;;;;;;;;;0.14;100.00;98545.00;4916497;29;19939;-69
2021/12/20 15:37:58;;;;;;;;;;;;;;;0.19;100.00;98553.09;4917804;29;19927;-69
2021/12/20 15:40:25;;;;;;;;;;;;;;;0.19;100.00;98551.16;4916670;29;19935;-69
2021/12/20 15:43:00;;;;;;;;;;;;;;;0.21;100.00;98551.63;4919090;29;19927;-69
2021/12/20 15:45:29;;;;;;;;;;;;;;;0.17;100.00;98545.16;4917881;29;19931;-69
2021/12/20 15:47:56;;;;;;;;;;;;;;;0.22;100.00;98544.22;4918553;29;19927;-69
2021/12/20 15:50:25;;;;;;;;;;;;;;;0.21;100.00;98548.88;4915015;29;19931;-69
2021/12/20 15:52:53;;;;;;;;;;;;;;;0.19;100.00;98544.84;4917462;29;19957;-69
2021/12/20 15:55:42;;;;;;;;;;;;;;;0.18;100.00;98541.28;4919298;29;19927;-69
2021/12/20 15:58:10;;;;;;;;;;;;;;;0.27;100.00;98535.78;4920657;29;19938;-70
2021/12/20 16:00:37;;;;;;;;;;;;;;;0.23;100.00;98534.81;4913938;29;19942;-70
2021/12/20 16:03:05;;;;;;;;;;;;;;;0.36;100.00;98547.59;4921144;29;19934;-69
2021/12/20 16:05:32;;;;;;;;;;;;;;;0.45;100.00;98548.38;4912579;29;19928;-69
2021/12/20 16:07:59;;;;;;;;;;;;;;;0.43;100.00;98547.91;4918463;29;19931;-69